createdAt,value
2019-05-30T04:02:06.414Z,6.50
2019-05-30T04:04:42.948Z,6.60
2019-05-30T04:07:16.081Z,6.60
2019-05-30T04:09:48.188Z,6.70
2019-05-30T04:12:40.320Z,6.70
2019-05-30T04:15:19.054Z,6.70
2019-05-30T04:17:49.006Z,6.80
2019-05-30T04:20:22.529Z,6.90
2019-05-30T04:22:50.549Z,6.90
2019-05-30T04:25:20.516Z,6.80
2019-05-30T04:27:50.467Z,6.80
2019-05-30T04:30:20.430Z,6.90
2019-05-30T04:32:50.374Z,7.00
2019-05-30T04:35:20.334Z,7.00
2019-05-30T04:37:50.294Z,7.20
2019-05-30T04:40:20.339Z,7.30
2019-05-30T04:42:50.283Z,7.50
2019-05-30T04:45:20.405Z,7.60
2019-05-30T04:47:50.363Z,7.70
2019-05-30T04:50:20.889Z,7.90
2019-05-30T04:52:51.337Z,8.10
2019-05-30T04:55:23.145Z,8.30
2019-05-30T04:57:52.957Z,8.40
2019-05-30T05:00:23.895Z,8.70
2019-05-30T05:02:53.829Z,8.90
2019-05-30T05:05:26.996Z,9.20
2019-05-30T05:07:55.968Z,9.40
2019-05-30T05:10:25.911Z,9.60
2019-05-30T05:12:55.895Z,9.80
2019-05-30T05:15:25.825Z,9.90
2019-05-30T05:17:55.840Z,10.10
2019-05-30T05:20:25.783Z,10.20
2019-05-30T05:22:56.099Z,10.30
2019-05-30T05:25:26.055Z,10.40
2019-05-30T05:27:56.034Z,10.60
2019-05-30T05:30:25.981Z,10.70
2019-05-30T05:32:55.985Z,10.80
2019-05-30T05:35:25.932Z,10.90
2019-05-30T05:37:55.942Z,11.00
2019-05-30T05:40:25.880Z,11.10
2019-05-30T05:42:55.859Z,11.30
2019-05-30T05:45:25.946Z,11.40
2019-05-30T05:47:55.940Z,11.50
2019-05-30T05:50:25.887Z,11.60
2019-05-30T05:52:55.867Z,11.80
2019-05-30T05:55:25.855Z,11.90
2019-05-30T05:57:55.836Z,11.90
2019-05-30T06:00:25.782Z,12.10
2019-05-30T06:02:55.762Z,12.20
2019-05-30T06:05:25.753Z,12.30
2019-05-30T06:07:55.705Z,12.40
2019-05-30T06:10:25.810Z,12.50
2019-05-30T06:12:55.740Z,12.70
2019-05-30T06:15:25.752Z,12.80
2019-05-30T06:17:55.728Z,12.90
2019-05-30T06:20:25.727Z,13.00
2019-05-30T06:22:55.676Z,13.10
2019-05-30T06:25:30.420Z,13.20
2019-05-30T06:27:57.238Z,13.30
2019-05-30T06:30:28.578Z,13.40
2019-05-30T06:32:58.809Z,13.50
2019-05-30T06:35:29.486Z,13.60
2019-05-30T06:37:59.505Z,13.70
2019-05-30T06:40:30.948Z,13.80
2019-05-30T06:43:01.177Z,13.90
2019-05-30T06:45:31.171Z,14.00
2019-05-30T06:48:01.116Z,14.10
2019-05-30T06:50:31.097Z,14.20
2019-05-30T06:53:01.060Z,14.30
2019-05-30T06:55:31.446Z,14.40
2019-05-30T06:58:01.469Z,14.60
2019-05-30T07:00:32.959Z,14.70
2019-05-30T07:03:03.026Z,14.70
2019-05-30T07:05:34.574Z,14.80
2019-05-30T07:08:04.681Z,15.00
2019-05-30T07:10:34.663Z,15.00
2019-05-30T07:13:04.754Z,15.20
2019-05-30T07:15:35.643Z,15.30
2019-05-30T07:18:05.778Z,15.40
2019-05-30T07:20:35.779Z,15.50
2019-05-30T07:23:05.760Z,15.60
2019-05-30T07:25:35.816Z,15.70
2019-05-30T07:28:05.929Z,15.90
2019-05-30T07:30:36.017Z,16.00
2019-05-30T07:33:06.111Z,16.10
2019-05-30T07:35:36.095Z,16.20
2019-05-30T07:38:06.166Z,16.20
2019-05-30T07:40:36.498Z,16.30
2019-05-30T07:43:06.837Z,16.30
2019-05-30T07:45:37.059Z,16.50
2019-05-30T07:48:07.103Z,16.60
2019-05-30T07:50:37.296Z,16.70
2019-05-30T07:53:07.315Z,16.70
2019-05-30T07:55:37.394Z,16.90
2019-05-30T07:58:07.343Z,17.00
2019-05-30T08:00:37.674Z,17.10
2019-05-30T08:03:07.660Z,17.30
2019-05-30T08:05:38.990Z,17.40
2019-05-30T08:08:09.001Z,17.50
2019-05-30T08:10:39.010Z,17.60
2019-05-30T08:13:08.982Z,17.70
2019-05-30T08:15:43.868Z,17.90
2019-05-30T08:18:10.728Z,18.00
2019-05-30T08:20:40.778Z,18.10
2019-05-30T08:23:10.799Z,18.20
2019-05-30T08:25:40.777Z,18.30
2019-05-30T08:28:10.795Z,18.40
2019-05-30T08:30:40.912Z,18.50
2019-05-30T08:33:10.903Z,18.60
2019-05-30T08:35:49.222Z,18.70
2019-05-30T08:38:12.664Z,18.90
2019-05-30T08:40:42.706Z,19.10
2019-05-30T08:43:12.724Z,19.30
2019-05-30T08:45:42.676Z,19.50
2019-05-30T08:48:12.758Z,19.60
2019-05-30T08:50:44.709Z,19.50
2019-05-30T08:53:14.496Z,19.50
2019-05-30T08:55:44.439Z,19.80
2019-05-30T08:58:15.411Z,20.00
2019-05-30T09:00:45.411Z,20.20
2019-05-30T09:03:15.673Z,20.30
2019-05-30T09:06:00.953Z,20.40
2019-05-30T09:08:19.579Z,20.50
2019-05-30T09:10:49.586Z,20.60
2019-05-30T09:13:19.616Z,20.70
2019-05-30T09:15:49.718Z,20.80
2019-05-30T09:18:19.891Z,20.90
2019-05-30T09:20:49.900Z,21.00
2019-05-30T09:23:20.161Z,21.10
2019-05-30T09:25:50.562Z,21.20
2019-05-30T09:28:20.702Z,21.30
2019-05-30T09:30:50.752Z,21.40
2019-05-30T09:33:20.708Z,21.60
2019-05-30T09:35:50.957Z,21.70
2019-05-30T09:38:20.984Z,21.90
2019-05-30T09:40:51.084Z,21.90
2019-05-30T09:43:21.112Z,22.20
2019-05-30T09:45:51.484Z,22.40
2019-05-30T09:48:21.661Z,22.70
2019-05-30T09:50:51.650Z,22.80
2019-05-30T09:53:22.861Z,22.90
2019-05-30T09:55:53.170Z,23.00
2019-05-30T09:58:23.217Z,23.20
2019-05-30T10:01:47.989Z,23.50
2019-05-30T10:03:59.055Z,23.40
2019-05-30T10:06:30.173Z,23.60
2019-05-30T10:09:00.284Z,23.80
2019-05-30T10:11:30.233Z,24.00
2019-05-30T10:14:00.199Z,24.00
2019-05-30T10:16:31.361Z,24.00
2019-05-30T10:19:02.562Z,24.20
2019-05-30T10:21:32.765Z,24.40
2019-05-30T10:24:02.790Z,24.60
2019-05-30T10:26:33.398Z,24.80
2019-05-30T10:29:03.473Z,24.90
2019-05-30T10:31:33.442Z,24.90
2019-05-30T10:34:03.407Z,25.30
2019-05-30T10:36:43.745Z,25.40
2019-05-30T10:39:07.299Z,25.60
2019-05-30T10:41:37.348Z,25.70
2019-05-30T10:44:07.298Z,25.80
2019-05-30T10:46:37.478Z,25.70
2019-05-30T10:49:07.485Z,25.70
2019-05-30T10:51:37.482Z,25.80
2019-05-30T10:54:07.458Z,25.80
2019-05-30T10:56:37.464Z,25.90
2019-05-30T10:59:07.485Z,25.90
2019-05-30T11:01:37.454Z,26.00
2019-05-30T11:04:08.385Z,26.10
2019-05-30T11:07:04.941Z,26.40
2019-05-30T11:09:21.580Z,26.40
2019-05-30T11:11:52.769Z,26.70
2019-05-30T11:14:22.839Z,26.80
2019-05-30T11:16:53.758Z,27.10
2019-05-30T11:19:23.814Z,27.00
2019-05-30T11:21:54.641Z,27.30
2019-05-30T11:24:24.631Z,27.90
2019-05-30T11:26:55.619Z,27.90
2019-05-30T11:29:26.338Z,27.70
2019-05-30T11:31:57.014Z,28.20
2019-05-30T11:34:27.179Z,28.50
2019-05-30T11:36:59.339Z,28.50
2019-05-30T11:39:30.396Z,28.30
2019-05-30T11:42:00.588Z,28.20
2019-05-30T11:44:30.759Z,28.70
2019-05-30T11:47:01.129Z,28.60
2019-05-30T11:49:31.200Z,28.90
2019-05-30T11:52:01.177Z,29.20
2019-05-30T11:54:31.190Z,28.90
2019-05-30T11:57:01.315Z,29.20
2019-05-30T11:59:31.329Z,28.90
2019-05-30T12:02:01.395Z,29.10
2019-05-30T12:04:31.413Z,29.40
2019-05-30T12:07:02.942Z,29.40
2019-05-30T12:09:33.022Z,29.50
2019-05-30T12:12:03.219Z,29.50
2019-05-30T12:14:33.397Z,29.90
2019-05-30T12:17:03.469Z,30.20
2019-05-30T12:19:33.412Z,30.20
2019-05-30T12:22:03.600Z,30.10
2019-05-30T12:24:33.622Z,30.30
2019-05-30T12:27:03.692Z,30.50
2019-05-30T12:29:33.750Z,30.40
2019-05-30T12:32:03.924Z,30.10
2019-05-30T12:34:33.876Z,30.20
2019-05-30T12:37:04.344Z,30.50
2019-05-30T12:39:34.351Z,30.70
2019-05-30T12:42:04.384Z,31.10
2019-05-30T12:44:34.386Z,31.40
2019-05-30T12:47:04.594Z,31.30
2019-05-30T12:49:34.553Z,31.30
2019-05-30T12:52:05.878Z,31.60
2019-05-30T12:54:36.323Z,31.70
2019-05-30T12:57:07.035Z,32.10
2019-05-30T12:59:37.088Z,32.00
2019-05-30T13:02:07.313Z,31.90
2019-05-30T13:04:37.307Z,31.90
2019-05-30T13:07:07.811Z,32.30
2019-05-30T13:09:37.761Z,32.10
2019-05-30T13:12:07.737Z,32.30
2019-05-30T13:14:37.743Z,31.90
2019-05-30T13:17:07.687Z,32.60
2019-05-30T13:19:37.778Z,33.00
2019-05-30T13:22:07.792Z,33.20
2019-05-30T13:24:37.772Z,33.00
2019-05-30T13:27:07.800Z,33.10
2019-05-30T13:29:37.799Z,33.40
2019-05-30T13:32:07.748Z,33.80
2019-05-30T13:34:37.710Z,33.60
2019-05-30T13:37:07.701Z,32.50
2019-05-30T13:39:37.661Z,31.80
2019-05-30T13:42:07.889Z,31.20
2019-05-30T13:44:38.773Z,30.10
2019-05-30T13:47:09.123Z,29.40
2019-05-30T13:49:39.091Z,30.30
2019-05-30T13:52:09.202Z,31.20
2019-05-30T13:54:39.177Z,30.50
2019-05-30T13:57:09.765Z,31.20
2019-05-30T13:59:39.932Z,32.10
2019-05-30T14:02:10.359Z,31.40
2019-05-30T14:04:40.322Z,31.10
2019-05-30T14:07:10.525Z,30.80
2019-05-30T14:09:40.423Z,30.80
2019-05-30T14:12:10.702Z,31.40
2019-05-30T14:14:40.786Z,32.00
2019-05-30T14:17:12.420Z,32.70
2019-05-30T14:19:42.459Z,31.70
2019-05-30T14:22:12.428Z,30.70
2019-05-30T14:24:42.572Z,29.70
2019-05-30T14:27:12.534Z,29.20
2019-05-30T14:29:42.501Z,28.30
2019-05-30T14:32:12.456Z,27.70
2019-05-30T14:34:42.468Z,27.00
2019-05-30T14:37:12.608Z,26.50
2019-05-30T14:39:42.865Z,26.20
2019-05-30T14:42:13.270Z,26.00
2019-05-30T14:44:43.410Z,26.10
2019-05-30T14:47:13.355Z,25.90
2019-05-30T14:49:43.340Z,25.50
2019-05-30T14:52:13.482Z,25.30
2019-05-30T14:54:44.420Z,25.30
2019-05-30T14:57:14.389Z,25.20
2019-05-30T14:59:44.377Z,25.20
2019-05-30T15:02:14.324Z,25.20
2019-05-30T15:04:44.327Z,25.20
2019-05-30T15:07:15.550Z,25.10
2019-05-30T15:09:45.562Z,25.20
2019-05-30T15:12:16.805Z,25.10
2019-05-30T15:14:46.989Z,25.00
2019-05-30T15:17:17.726Z,25.00
2019-05-30T15:19:47.730Z,25.00
2019-05-30T15:22:18.508Z,24.90
2019-05-30T15:24:48.563Z,24.70
2019-05-30T15:27:20.681Z,24.70
2019-05-30T15:29:50.137Z,24.60
2019-05-30T15:32:20.094Z,24.50
2019-05-30T15:34:51.069Z,24.50
2019-05-30T15:37:21.026Z,24.40
2019-05-30T15:39:51.004Z,24.50
2019-05-30T15:42:20.947Z,24.40
2019-05-30T15:44:50.949Z,24.30
2019-05-30T15:47:20.917Z,24.20
2019-05-30T15:49:52.297Z,24.30
2019-05-30T15:52:22.455Z,24.40
2019-05-30T15:54:52.456Z,24.60
2019-05-30T15:57:22.435Z,24.60
2019-05-30T15:59:52.657Z,24.60
2019-05-30T16:02:23.245Z,24.50
2019-05-30T16:04:53.361Z,24.40
2019-05-30T16:07:23.339Z,24.30
2019-05-30T16:09:53.341Z,24.20
2019-05-30T16:12:23.295Z,24.10
2019-05-30T16:14:53.292Z,23.90
2019-05-30T16:17:23.254Z,23.80
2019-05-30T16:19:53.276Z,23.70
2019-05-30T16:22:23.328Z,23.60
2019-05-30T16:24:53.373Z,23.60
2019-05-30T16:27:24.379Z,23.50
2019-05-30T16:29:54.324Z,23.50
2019-05-30T16:32:24.326Z,23.50
2019-05-30T16:34:54.269Z,23.40
2019-05-30T16:37:24.242Z,23.40
2019-05-30T16:40:05.317Z,23.40
2019-05-30T16:42:26.527Z,23.30
2019-05-30T16:44:56.441Z,23.30
2019-05-30T16:47:26.660Z,23.30
2019-05-30T16:49:56.776Z,23.20
2019-05-30T16:52:27.289Z,23.10
2019-05-30T16:54:57.371Z,23.20
2019-05-30T16:57:27.386Z,23.10
2019-05-30T16:59:57.411Z,23.00
2019-05-30T17:02:27.507Z,23.00
2019-05-30T17:04:57.546Z,22.80
2019-05-30T17:07:27.666Z,22.80
2019-05-30T17:09:57.623Z,22.70
2019-05-30T17:12:27.584Z,22.70
2019-05-30T17:14:57.554Z,22.70
2019-05-30T17:17:27.514Z,22.60
2019-05-30T17:19:57.562Z,22.40
2019-05-30T17:22:30.286Z,22.10
2019-05-30T17:24:59.127Z,22.10
2019-05-30T17:27:29.381Z,22.10
2019-05-30T17:29:59.442Z,22.00
2019-05-30T17:32:29.411Z,21.90
2019-05-30T17:34:59.388Z,21.90
2019-05-30T17:37:29.370Z,21.80
2019-05-30T17:39:59.380Z,21.80
2019-05-30T17:42:29.400Z,21.70
2019-05-30T17:45:00.601Z,21.60
2019-05-30T17:47:30.878Z,21.60
2019-05-30T17:50:00.848Z,21.60
2019-05-30T17:52:31.047Z,21.50
2019-05-30T17:55:01.024Z,21.60
2019-05-30T17:57:31.263Z,21.50
2019-05-30T18:00:02.928Z,21.40
2019-05-30T18:02:34.486Z,21.50
2019-05-30T18:05:07.527Z,21.40
2019-05-30T18:07:37.635Z,21.20
2019-05-30T18:10:08.308Z,21.10
2019-05-30T18:12:38.663Z,20.90
2019-05-30T18:15:11.198Z,20.80
2019-05-30T18:17:41.358Z,20.90
2019-05-30T18:20:12.190Z,20.90
2019-05-30T18:22:42.431Z,20.80
2019-05-30T18:25:13.386Z,20.80
2019-05-30T18:27:43.805Z,20.70
2019-05-30T18:30:14.721Z,20.70
2019-05-30T18:32:46.564Z,20.60
2019-05-30T18:35:17.135Z,20.60
2019-05-30T18:37:48.747Z,20.60
2019-05-30T18:40:35.726Z,20.70
2019-05-30T18:43:07.754Z,20.60
2019-05-30T18:45:40.080Z,20.50
2019-05-30T18:48:11.468Z,20.50
2019-05-30T18:50:42.067Z,20.50
2019-05-30T18:53:13.688Z,20.40
2019-05-30T18:55:44.423Z,20.20
2019-05-30T18:58:15.714Z,20.30
2019-05-30T19:00:46.268Z,20.20
2019-05-30T19:03:16.968Z,20.20
2019-05-30T19:05:48.547Z,20.20
2019-05-30T19:08:20.770Z,20.10
2019-05-30T19:10:51.301Z,20.00
2019-05-30T19:13:21.831Z,20.00
2019-05-30T19:15:53.099Z,20.00
2019-05-30T19:18:25.353Z,20.10
2019-05-30T19:20:55.837Z,20.10
2019-05-30T19:23:26.238Z,20.00
2019-05-30T19:25:56.700Z,20.00
2019-05-30T19:28:28.557Z,20.00
2019-05-30T19:30:59.133Z,19.90
2019-05-30T19:33:30.899Z,19.90
2019-05-30T19:36:01.619Z,19.80
2019-05-30T19:38:33.717Z,19.80
2019-05-30T19:41:05.054Z,19.80
2019-05-30T19:43:35.925Z,19.70
2019-05-30T19:46:07.117Z,19.70
2019-05-30T19:48:38.542Z,19.80
2019-05-30T19:51:09.227Z,19.80
2019-05-30T19:53:39.673Z,19.80
2019-05-30T19:56:10.696Z,19.70
2019-05-30T19:58:41.234Z,19.70
2019-05-30T20:01:13.682Z,19.70
2019-05-30T20:03:47.984Z,19.70
2019-05-30T20:06:19.964Z,19.80
2019-05-30T20:08:55.713Z,19.70
2019-05-30T20:11:27.035Z,19.70
2019-05-30T20:13:57.567Z,19.70
2019-05-30T20:16:28.190Z,19.70
2019-05-30T20:18:58.616Z,19.70
2019-05-30T20:21:29.120Z,19.70
2019-05-30T20:23:59.771Z,19.70
2019-05-30T20:26:30.234Z,19.40
2019-05-30T20:29:00.590Z,19.30
2019-05-30T20:31:30.641Z,19.30
2019-05-30T20:34:00.862Z,19.30
2019-05-30T20:36:31.072Z,19.20
2019-05-30T20:39:01.316Z,19.20
2019-05-30T20:41:33.072Z,19.10
2019-05-30T20:44:03.440Z,19.20
2019-05-30T20:46:34.782Z,19.20
2019-05-30T20:49:05.487Z,19.20
2019-05-30T20:51:37.233Z,19.20
2019-05-30T20:54:07.472Z,19.20
2019-05-30T20:56:37.717Z,19.10
2019-05-30T20:59:10.198Z,19.00
2019-05-30T21:01:39.888Z,19.00
2019-05-30T21:04:10.317Z,19.00
2019-05-30T21:06:41.532Z,18.90
2019-05-30T21:09:27.793Z,18.90
2019-05-30T21:11:46.599Z,18.90
2019-05-30T21:14:17.918Z,18.80
2019-05-30T21:16:50.605Z,18.80
2019-05-30T21:19:21.659Z,18.80
2019-05-30T21:21:51.686Z,18.80
2019-05-30T21:24:21.643Z,18.80
2019-05-30T21:26:51.650Z,18.80
2019-05-30T21:29:21.899Z,18.70
